createdAt,value
2022-10-16T00:01:17.526Z,1208.13
2022-10-16T00:03:45.110Z,1216.30
2022-10-16T00:06:12.795Z,1223.13
2022-10-16T00:08:40.345Z,1206.75
2022-10-16T00:11:09.059Z,1201.80
2022-10-16T00:13:37.541Z,1217.43
2022-10-16T00:16:05.101Z,1208.70
2022-10-16T00:18:32.402Z,1207.22
2022-10-16T00:21:06.434Z,1212.57
2022-10-16T00:23:34.077Z,1213.97
2022-10-16T00:26:02.804Z,1214.43
2022-10-16T00:28:30.262Z,1200.70
2022-10-16T00:30:57.469Z,1203.10
2022-10-16T00:33:24.735Z,1221.25
2022-10-16T00:35:52.083Z,1220.80
2022-10-16T00:38:19.307Z,1216.72
2022-10-16T00:40:46.470Z,1220.93
2022-10-16T00:43:35.777Z,1211.65
2022-10-16T00:46:03.881Z,1210.85
2022-10-16T00:48:31.154Z,1197.45
2022-10-16T00:50:59.195Z,1203.25
2022-10-16T00:53:27.068Z,1192.00
2022-10-16T00:55:54.380Z,1190.72
2022-10-16T00:58:21.941Z,1191.40
2022-10-16T01:00:49.195Z,1189.03
2022-10-16T01:03:25.461Z,1188.78
2022-10-16T01:05:58.223Z,1192.10
2022-10-16T01:08:54.854Z,1187.15
2022-10-16T01:11:28.991Z,1196.78
2022-10-16T01:13:57.431Z,1214.10
2022-10-16T01:16:37.256Z,1201.05
2022-10-16T01:19:32.973Z,1203.70
2022-10-16T01:22:00.643Z,1209.28
2022-10-16T01:24:30.598Z,1192.80
2022-10-16T01:27:16.883Z,1197.17
2022-10-16T01:29:51.123Z,1192.07
2022-10-16T01:32:21.639Z,1205.47
2022-10-16T01:34:51.193Z,1206.53
2022-10-16T01:37:33.888Z,1209.57
2022-10-16T01:40:03.566Z,1207.22
2022-10-16T01:42:36.378Z,1210.35
2022-10-16T01:45:07.347Z,1210.03
2022-10-16T01:47:35.351Z,1213.72
2022-10-16T01:50:05.929Z,1212.18
2022-10-16T01:52:36.597Z,1213.05
2022-10-16T01:55:05.642Z,1217.20
2022-10-16T01:57:34.899Z,1214.20
2022-10-16T02:00:05.709Z,1213.10
2022-10-16T02:02:39.955Z,1218.57
2022-10-16T02:05:14.081Z,1212.20
2022-10-16T02:07:43.017Z,1219.80
2022-10-16T02:10:10.618Z,1224.13
2022-10-16T02:12:40.950Z,1213.70
2022-10-16T02:15:08.405Z,1214.78
2022-10-16T02:17:35.523Z,1219.60
2022-10-16T02:20:03.074Z,1207.97
2022-10-16T02:22:44.778Z,1219.65
2022-10-16T02:25:18.998Z,1202.13
2022-10-16T02:28:04.437Z,1208.57
2022-10-16T02:30:34.387Z,1206.15
2022-10-16T02:33:03.660Z,1198.97
2022-10-16T02:35:31.574Z,1202.90
2022-10-16T02:37:59.235Z,1190.85
2022-10-16T02:40:27.323Z,1198.22
2022-10-16T02:42:55.399Z,1198.65
2022-10-16T02:45:22.742Z,1197.25
2022-10-16T02:47:50.355Z,1198.68
2022-10-16T02:50:17.631Z,1193.32
2022-10-16T02:52:44.730Z,1200.03
2022-10-16T02:55:11.909Z,1191.30
2022-10-16T02:57:41.118Z,1191.60
2022-10-16T03:00:09.517Z,1199.97
2022-10-16T03:02:36.649Z,1197.20
2022-10-16T03:05:03.783Z,1198.38
2022-10-16T03:07:30.907Z,1199.22
2022-10-16T03:10:01.011Z,1204.50
2022-10-16T03:12:28.653Z,1190.72
2022-10-16T03:14:57.447Z,1191.20
2022-10-16T03:17:25.048Z,1190.60
2022-10-16T03:19:52.518Z,1191.63
2022-10-16T03:22:19.644Z,1199.00
2022-10-16T03:24:46.947Z,1202.75
2022-10-16T03:27:14.222Z,1214.28
2022-10-16T03:29:41.420Z,1214.55
2022-10-16T03:32:08.548Z,1219.03
2022-10-16T03:34:35.693Z,1222.13
2022-10-16T03:37:02.861Z,1224.45
2022-10-16T03:39:29.959Z,1220.75
2022-10-16T03:41:57.165Z,1220.67
2022-10-16T03:44:24.440Z,1216.47
2022-10-16T03:46:51.754Z,1210.40
2022-10-16T03:49:18.939Z,1209.95
2022-10-16T03:51:46.084Z,1207.50
2022-10-16T03:54:13.369Z,1210.90
2022-10-16T03:56:40.786Z,1211.07
2022-10-16T03:59:07.843Z,1200.72
2022-10-16T04:01:35.058Z,1189.18
2022-10-16T04:04:02.205Z,1192.25
2022-10-16T04:06:29.324Z,1201.10
2022-10-16T04:08:57.052Z,1214.60
2022-10-16T04:11:24.171Z,1213.40
2022-10-16T04:13:51.345Z,1214.18
2022-10-16T04:16:18.450Z,1211.77
2022-10-16T04:18:45.613Z,1211.20
2022-10-16T04:21:12.798Z,1216.95
2022-10-16T04:23:39.922Z,1218.55
2022-10-16T04:26:07.178Z,1221.15
2022-10-16T04:28:34.581Z,1218.63
2022-10-16T04:31:01.777Z,1215.18
2022-10-16T04:33:28.906Z,1217.33
2022-10-16T04:35:59.735Z,1216.65
2022-10-16T04:38:27.234Z,1216.90
2022-10-16T04:40:54.467Z,1216.90
2022-10-16T04:43:21.686Z,1220.88
2022-10-16T04:45:48.962Z,1221.43
2022-10-16T04:48:16.143Z,1222.73
2022-10-16T04:50:43.362Z,1221.45
2022-10-16T04:53:10.594Z,1222.35
2022-10-16T04:55:38.924Z,1226.63
2022-10-16T04:58:06.594Z,1227.75
2022-10-16T05:00:33.727Z,1225.18
2022-10-16T05:03:01.737Z,1222.60
2022-10-16T05:05:29.137Z,1226.30
2022-10-16T05:07:56.414Z,1226.15
2022-10-16T05:10:23.560Z,1224.78
2022-10-16T05:12:52.097Z,1221.93
2022-10-16T05:15:19.592Z,1227.95
2022-10-16T05:17:46.626Z,1223.15
2022-10-16T05:20:13.921Z,1226.10
2022-10-16T05:22:41.017Z,1223.33
2022-10-16T05:25:08.311Z,1222.63
2022-10-16T05:27:35.543Z,1229.78
2022-10-16T05:30:02.754Z,1226.82
2022-10-16T05:32:29.938Z,1230.85
2022-10-16T05:34:57.107Z,1226.45
2022-10-16T05:37:24.677Z,1229.75
2022-10-16T05:39:52.098Z,1228.05
2022-10-16T05:42:19.756Z,1233.97
2022-10-16T05:44:46.918Z,1232.93
2022-10-16T05:47:15.118Z,1228.40
2022-10-16T05:49:42.367Z,1225.65
2022-10-16T05:52:09.534Z,1231.13
2022-10-16T05:54:36.847Z,1229.85
2022-10-16T05:57:06.497Z,1226.43
2022-10-16T05:59:33.857Z,1221.35
2022-10-16T06:02:01.001Z,1223.70
2022-10-16T06:04:28.099Z,1223.55
2022-10-16T06:06:58.601Z,1222.37
2022-10-16T06:09:25.710Z,1228.57
2022-10-16T06:11:52.798Z,1222.47
2022-10-16T06:14:19.974Z,1218.53
2022-10-16T06:16:47.129Z,1228.43
2022-10-16T06:19:14.311Z,1213.70
2022-10-16T06:21:41.715Z,1218.77
2022-10-16T06:24:09.703Z,1217.80
2022-10-16T06:26:36.995Z,1216.38
2022-10-16T06:29:04.125Z,1217.28
2022-10-16T06:31:34.117Z,1226.60
2022-10-16T06:34:01.909Z,1223.32
2022-10-16T06:36:29.425Z,1221.05
2022-10-16T06:38:56.638Z,1223.40
2022-10-16T06:41:24.416Z,1217.25
2022-10-16T06:43:51.819Z,1222.23
2022-10-16T06:46:20.514Z,1212.83
2022-10-16T06:48:47.881Z,1216.55
2022-10-16T06:51:16.143Z,1221.80
2022-10-16T06:54:01.938Z,1221.65
2022-10-16T06:56:32.683Z,1219.78
2022-10-16T06:59:00.447Z,1223.75
2022-10-16T07:01:28.385Z,1213.25
2022-10-16T07:03:55.593Z,1214.82
2022-10-16T07:06:24.387Z,1217.10
2022-10-16T07:08:51.835Z,1224.15
2022-10-16T07:11:20.119Z,1221.05
2022-10-16T07:13:51.067Z,1222.95
2022-10-16T07:16:23.719Z,1215.88
2022-10-16T07:18:55.086Z,1220.10
2022-10-16T07:21:23.859Z,1213.63
2022-10-16T07:23:58.644Z,1214.40
2022-10-16T07:26:26.462Z,1214.80
2022-10-16T07:28:53.941Z,1217.40
2022-10-16T07:31:22.200Z,1207.00
2022-10-16T07:33:49.947Z,1209.03
2022-10-16T07:36:18.645Z,1207.22
2022-10-16T07:38:47.631Z,1216.32
2022-10-16T07:41:16.412Z,1209.50
2022-10-16T07:43:50.154Z,1220.38
2022-10-16T07:46:17.928Z,1212.65
2022-10-16T07:48:47.868Z,1215.05
2022-10-16T07:51:16.398Z,1215.07
2022-10-16T07:53:43.542Z,1221.82
2022-10-16T07:56:11.019Z,1220.20
2022-10-16T07:58:38.199Z,1215.88
2022-10-16T08:01:06.883Z,1208.37
2022-10-16T08:03:34.382Z,1210.88
2022-10-16T08:06:01.987Z,1217.03
2022-10-16T08:08:29.239Z,1210.88
2022-10-16T08:10:56.788Z,1231.35
2022-10-16T08:13:24.238Z,1211.57
2022-10-16T08:15:51.537Z,1212.07
2022-10-16T08:18:18.652Z,1209.15
2022-10-16T08:20:45.830Z,1211.95
2022-10-16T08:23:14.211Z,1212.43
2022-10-16T08:25:41.977Z,1215.80
2022-10-16T08:28:10.261Z,1215.47
2022-10-16T08:30:37.920Z,1209.40
2022-10-16T08:33:05.627Z,1206.43
2022-10-16T08:35:32.831Z,1212.77
2022-10-16T08:38:00.039Z,1210.43
2022-10-16T08:40:29.061Z,1211.85
2022-10-16T08:42:56.346Z,1210.70
2022-10-16T08:46:11.371Z,1206.18
2022-10-16T08:48:41.631Z,1206.25
2022-10-16T08:51:11.317Z,1208.43
2022-10-16T08:53:45.811Z,1212.77
2022-10-16T08:56:13.169Z,1212.60
2022-10-16T08:58:40.379Z,1209.83
2022-10-16T09:01:17.653Z,1216.70
2022-10-16T09:04:00.634Z,1215.07
2022-10-16T09:06:39.857Z,1214.13
2022-10-16T09:09:07.013Z,1208.77
2022-10-16T09:11:36.659Z,1204.60
2022-10-16T09:14:03.743Z,1207.83
2022-10-16T09:16:37.726Z,1205.22
2022-10-16T09:19:42.395Z,1213.38
2022-10-16T09:22:16.584Z,1221.10
2022-10-16T09:24:43.662Z,1215.40
2022-10-16T09:27:15.149Z,1214.13
2022-10-16T09:29:42.512Z,1231.23
2022-10-16T09:32:14.450Z,1220.50
2022-10-16T09:34:45.175Z,1216.70
2022-10-16T09:37:15.313Z,1220.90
2022-10-16T09:39:47.325Z,1225.50
2022-10-16T09:42:26.723Z,1226.60
2022-10-16T09:44:54.613Z,1215.53
2022-10-16T09:47:24.806Z,1213.82
2022-10-16T09:49:58.122Z,1212.30
2022-10-16T09:52:25.306Z,1218.88
2022-10-16T09:54:52.494Z,1210.78
2022-10-16T09:57:19.861Z,1213.40
2022-10-16T09:59:48.849Z,1218.32
2022-10-16T10:02:17.996Z,1219.18
2022-10-16T10:04:55.435Z,1220.55
2022-10-16T10:07:33.455Z,1217.35
2022-10-16T10:10:00.839Z,1221.38
2022-10-16T10:12:29.505Z,1225.13
2022-10-16T10:14:58.437Z,1220.93
2022-10-16T10:17:26.445Z,1219.97
2022-10-16T10:19:59.227Z,1220.75
2022-10-16T10:22:26.561Z,1219.45
2022-10-16T10:24:57.124Z,1212.40
2022-10-16T10:27:29.282Z,1212.93
2022-10-16T10:30:25.004Z,1208.65
2022-10-16T10:33:15.571Z,1216.23
2022-10-16T10:36:06.518Z,1217.78
2022-10-16T10:38:36.345Z,1215.28
2022-10-16T10:41:41.341Z,1217.60
2022-10-16T10:44:44.843Z,1219.75
2022-10-16T10:47:12.028Z,1215.28
2022-10-16T10:49:50.893Z,1211.28
2022-10-16T10:52:21.100Z,1219.07
2022-10-16T10:55:00.643Z,1216.85
2022-10-16T10:57:27.840Z,1219.38
2022-10-16T11:00:03.970Z,1218.70
2022-10-16T11:02:31.275Z,1222.65
2022-10-16T11:05:19.650Z,1217.30
2022-10-16T11:08:00.041Z,1217.13
2022-10-16T11:10:50.058Z,1220.17
2022-10-16T11:13:30.404Z,1226.00
2022-10-16T11:15:59.998Z,1219.72
2022-10-16T11:19:04.172Z,1219.65
2022-10-16T11:21:33.330Z,1215.00
2022-10-16T11:24:24.074Z,1215.90
2022-10-16T11:26:52.000Z,1217.57
2022-10-16T11:29:22.320Z,1217.55
2022-10-16T11:31:51.726Z,1215.00
2022-10-16T11:34:19.014Z,1218.05
2022-10-16T11:36:48.971Z,1217.05
2022-10-16T11:39:31.590Z,1224.38
2022-10-16T11:42:11.405Z,1223.90
2022-10-16T11:44:44.662Z,1227.70
2022-10-16T11:47:40.288Z,1229.25
2022-10-16T11:50:14.618Z,1220.50
2022-10-16T11:52:46.310Z,1219.30
2022-10-16T11:55:18.743Z,1222.47
2022-10-16T11:57:58.311Z,1229.20
2022-10-16T12:00:44.233Z,1227.93
2022-10-16T12:03:17.592Z,1230.20
2022-10-16T12:06:07.728Z,1230.85
2022-10-16T12:08:35.910Z,1197.70
2022-10-16T12:11:31.999Z,1199.47
2022-10-16T12:14:08.298Z,1194.13
2022-10-16T12:16:35.534Z,1189.07
2022-10-16T12:19:17.233Z,1195.43
2022-10-16T12:21:45.931Z,1193.47
2022-10-16T12:24:23.076Z,1192.03
2022-10-16T12:26:52.910Z,1195.85
2022-10-16T12:29:40.399Z,1193.53
2022-10-16T12:32:47.114Z,1191.73
2022-10-16T12:35:35.927Z,1192.10
2022-10-16T12:38:18.205Z,1197.38
2022-10-16T12:40:46.163Z,1196.70
2022-10-16T12:43:26.045Z,1199.53
2022-10-16T12:46:05.188Z,1200.47
2022-10-16T12:48:48.153Z,1198.93
2022-10-16T12:51:36.256Z,1197.50
2022-10-16T12:54:04.854Z,1197.03
2022-10-16T12:57:09.177Z,1195.05
2022-10-16T12:59:42.454Z,1200.13
2022-10-16T13:02:09.661Z,1203.35
2022-10-16T13:04:45.814Z,1199.90
2022-10-16T13:07:42.038Z,1208.18
2022-10-16T13:10:21.655Z,1199.50
2022-10-16T13:12:48.767Z,1203.65
2022-10-16T13:15:22.018Z,1206.70
2022-10-16T13:17:54.087Z,1203.22
2022-10-16T13:20:31.371Z,1202.95
2022-10-16T13:23:01.322Z,1194.97
2022-10-16T13:25:34.835Z,1202.93
2022-10-16T13:28:01.962Z,1199.73
2022-10-16T13:30:32.528Z,1202.38
2022-10-16T13:33:12.872Z,1198.88
2022-10-16T13:35:50.291Z,1197.68
2022-10-16T13:38:18.986Z,1196.00
2022-10-16T13:41:19.162Z,1199.65
2022-10-16T13:43:53.604Z,1198.82
2022-10-16T13:46:22.577Z,1198.53
2022-10-16T13:49:03.279Z,1196.60
2022-10-16T13:51:30.931Z,1203.38
2022-10-16T13:53:58.511Z,1200.05
2022-10-16T13:56:32.590Z,1196.47
2022-10-16T13:59:04.230Z,1197.88
2022-10-16T14:01:40.986Z,1194.63
2022-10-16T14:04:11.010Z,1196.47
2022-10-16T14:06:41.639Z,1193.28
2022-10-16T14:09:10.874Z,1197.88
2022-10-16T14:11:47.387Z,1197.28
2022-10-16T14:14:14.856Z,1200.15
2022-10-16T14:16:43.346Z,1196.38
2022-10-16T14:19:20.503Z,1193.68
2022-10-16T14:21:47.972Z,1200.82
2022-10-16T14:24:15.419Z,1196.07
2022-10-16T14:26:50.995Z,1195.10
2022-10-16T14:29:21.478Z,1200.00
2022-10-16T14:31:59.389Z,1196.43
2022-10-16T14:34:28.244Z,1200.40
2022-10-16T14:36:56.404Z,1197.40
2022-10-16T14:39:24.514Z,1196.05
2022-10-16T14:41:52.357Z,1198.75
2022-10-16T14:44:20.554Z,1197.70
2022-10-16T14:46:47.955Z,1198.80
2022-10-16T14:49:20.819Z,1189.18
2022-10-16T14:51:48.218Z,1197.00
2022-10-16T14:54:17.259Z,1197.13
2022-10-16T14:56:54.161Z,1195.45
2022-10-16T14:59:31.816Z,1196.85
2022-10-16T15:01:59.178Z,1190.00
2022-10-16T15:04:26.383Z,1188.90
2022-10-16T15:06:53.588Z,1202.32
2022-10-16T15:09:20.747Z,1195.35
2022-10-16T15:11:48.420Z,1190.50
2022-10-16T15:16:47.823Z,1200.45
2022-10-16T15:19:14.929Z,1195.90
2022-10-16T15:21:43.196Z,1200.60
2022-10-16T15:24:11.232Z,1199.63
2022-10-16T15:26:38.422Z,1199.25
2022-10-16T15:29:05.686Z,1195.67
2022-10-16T15:31:33.243Z,1193.45
2022-10-16T15:34:05.098Z,1192.03
2022-10-16T15:36:35.184Z,1189.57
2022-10-16T15:39:02.280Z,1197.65
2022-10-16T15:41:29.436Z,1192.05
2022-10-16T15:43:56.598Z,1200.88
2022-10-16T15:46:24.791Z,1205.63
2022-10-16T15:48:52.683Z,1202.00
2022-10-16T15:51:20.179Z,1209.03
2022-10-16T15:53:47.590Z,1203.63
2022-10-16T15:56:15.245Z,1203.63
2022-10-16T15:58:43.988Z,1195.60
2022-10-16T16:01:12.072Z,1200.47
2022-10-16T16:03:41.362Z,1203.70
2022-10-16T16:06:10.237Z,1196.72
2022-10-16T16:08:37.804Z,1201.53
2022-10-16T16:11:09.030Z,1199.68
2022-10-16T16:13:38.109Z,1194.95
2022-10-16T16:16:08.987Z,1197.88
2022-10-16T16:18:36.887Z,1198.47
2022-10-16T16:21:04.759Z,1197.85
2022-10-16T16:23:32.217Z,1196.18
2022-10-16T16:26:33.286Z,1194.43
2022-10-16T16:29:00.484Z,1188.77
2022-10-16T16:31:28.467Z,1196.80
2022-10-16T16:33:55.767Z,1197.60
2022-10-16T16:38:51.137Z,1201.03
2022-10-16T16:41:19.938Z,1199.85
2022-10-16T16:43:48.264Z,1178.17
2022-10-16T16:46:16.026Z,1194.28
2022-10-16T16:48:43.301Z,1198.80
2022-10-16T16:51:16.173Z,1210.05
2022-10-16T16:53:44.066Z,1199.38
2022-10-16T16:56:11.426Z,1209.85
2022-10-16T16:58:38.578Z,1207.70
2022-10-16T17:01:19.543Z,1203.78
2022-10-16T17:03:47.438Z,1208.53
2022-10-16T17:06:15.387Z,1208.17
2022-10-16T17:08:43.210Z,1205.82
2022-10-16T17:11:14.307Z,1209.57
2022-10-16T17:13:41.578Z,1200.05
2022-10-16T17:16:09.493Z,1201.97
2022-10-16T17:18:36.818Z,1203.70
2022-10-16T17:21:05.477Z,1210.00
2022-10-16T17:23:33.227Z,1211.47
2022-10-16T17:26:05.426Z,1200.33
2022-10-16T17:28:32.692Z,1205.53
2022-10-16T17:33:43.544Z,1184.07
2022-10-16T17:36:11.779Z,1216.18
2022-10-16T17:38:38.999Z,1217.40
2022-10-16T17:41:16.318Z,1212.03
2022-10-16T17:43:43.841Z,1215.80
2022-10-16T17:46:12.911Z,1216.03
2022-10-16T17:48:41.245Z,1209.53
2022-10-16T17:51:09.254Z,1208.60
2022-10-16T17:53:36.892Z,1194.45
2022-10-16T17:56:08.290Z,1202.22
2022-10-16T17:58:35.481Z,1203.38
2022-10-16T18:01:02.946Z,1198.43
2022-10-16T18:03:30.249Z,1194.80
2022-10-16T18:05:58.012Z,1198.53
2022-10-16T18:08:28.011Z,1195.47
2022-10-16T18:10:56.118Z,1197.60
2022-10-16T18:13:23.769Z,1197.53
2022-10-16T18:16:01.159Z,1201.50
2022-10-16T18:18:29.703Z,1199.85
2022-10-16T18:21:01.187Z,1206.60
2022-10-16T18:23:28.840Z,1207.57
2022-10-16T18:25:56.719Z,1209.97
2022-10-16T18:28:24.087Z,1216.07
2022-10-16T18:31:01.970Z,1210.88
2022-10-16T18:33:32.444Z,1210.22
2022-10-16T18:36:03.467Z,1205.47
2022-10-16T18:38:30.946Z,1207.28
2022-10-16T18:40:58.250Z,1204.85
2022-10-16T18:43:25.463Z,1214.82
2022-10-16T18:45:56.322Z,1221.90
2022-10-16T18:48:23.740Z,1218.00
2022-10-16T18:50:50.938Z,1219.18
2022-10-16T18:53:18.333Z,1214.55
2022-10-16T18:55:51.491Z,1220.40
2022-10-16T18:58:18.742Z,1216.47
2022-10-16T19:00:45.894Z,1217.35
2022-10-16T19:03:13.033Z,1214.38
2022-10-16T19:05:40.314Z,1217.03
2022-10-16T19:08:07.445Z,1214.80
2022-10-16T19:10:37.248Z,1221.55
2022-10-16T19:13:07.573Z,1218.32
2022-10-16T19:15:44.420Z,1225.68
2022-10-16T19:18:11.630Z,1222.55
2022-10-16T19:20:38.727Z,1223.55
2022-10-16T19:23:06.806Z,1221.45
2022-10-16T19:25:37.019Z,1215.55
2022-10-16T19:28:07.474Z,1215.23
2022-10-16T19:30:38.825Z,1213.30
2022-10-16T19:33:06.297Z,1217.43
2022-10-16T19:35:33.967Z,1211.30
2022-10-16T19:38:01.776Z,1217.72
2022-10-16T19:40:29.361Z,1219.57
2022-10-16T19:42:56.810Z,1217.10
2022-10-16T19:45:23.962Z,1197.63
2022-10-16T19:47:51.130Z,1201.97
2022-10-16T19:50:19.427Z,1202.20
2022-10-16T19:52:46.859Z,1197.82
2022-10-16T19:55:14.966Z,1206.07
2022-10-16T19:57:42.183Z,1206.07
2022-10-16T20:00:10.113Z,1202.45
2022-10-16T20:02:37.361Z,1193.03
2022-10-16T20:05:04.682Z,1197.90
2022-10-16T20:07:34.087Z,1198.72
2022-10-16T20:10:02.283Z,1192.70
2022-10-16T20:12:29.510Z,1200.18
2022-10-16T20:14:57.404Z,1197.38
2022-10-16T20:17:24.661Z,1203.90
2022-10-16T20:19:52.026Z,1203.78
2022-10-16T20:22:19.203Z,1205.65
2022-10-16T20:24:46.567Z,1210.00
2022-10-16T20:27:13.713Z,1207.28
2022-10-16T20:29:40.846Z,1204.60
2022-10-16T20:32:08.052Z,1215.00
2022-10-16T20:34:35.218Z,1205.72
2022-10-16T20:37:02.499Z,1210.18
2022-10-16T20:39:29.599Z,1197.47
2022-10-16T20:41:56.710Z,1198.25
2022-10-16T20:44:23.866Z,1206.05
2022-10-16T20:46:51.017Z,1208.03
2022-10-16T20:49:35.844Z,1201.37
2022-10-16T20:52:05.413Z,1204.25
2022-10-16T20:54:32.553Z,1204.05
2022-10-16T20:56:59.800Z,1200.05
2022-10-16T20:59:26.925Z,1206.75
2022-10-16T21:01:54.152Z,1195.85
2022-10-16T21:04:21.329Z,1200.82
2022-10-16T21:06:48.489Z,1197.40
2022-10-16T21:09:15.594Z,1197.17
2022-10-16T21:11:42.746Z,1194.10
2022-10-16T21:14:09.970Z,1195.07
2022-10-16T21:16:37.448Z,1201.70
2022-10-16T21:19:05.598Z,1197.25
2022-10-16T21:21:34.417Z,1193.45
2022-10-16T21:24:01.686Z,1199.40
2022-10-16T21:26:29.327Z,1200.32
2022-10-16T21:28:57.372Z,1201.53
2022-10-16T21:31:24.601Z,1196.82
2022-10-16T21:33:52.741Z,1199.45
2022-10-16T21:36:23.809Z,1194.60
2022-10-16T21:38:51.263Z,1199.15
2022-10-16T21:41:18.401Z,1197.33
2022-10-16T21:43:45.685Z,1197.60
2022-10-16T21:46:13.151Z,1196.20
2022-10-16T21:48:42.431Z,1198.57
2022-10-16T21:51:09.791Z,1200.73
2022-10-16T21:53:36.945Z,1202.83
2022-10-16T21:56:04.574Z,1202.27
2022-10-16T21:58:32.857Z,1199.72
2022-10-16T22:01:06.241Z,1201.63
2022-10-16T22:03:33.629Z,1206.10
2022-10-16T22:06:07.647Z,1201.70
2022-10-16T22:08:35.541Z,1200.05
2022-10-16T22:11:03.690Z,1204.55
2022-10-16T22:13:31.043Z,1206.22
2022-10-16T22:15:58.169Z,1198.90
2022-10-16T22:18:25.318Z,1200.75
2022-10-16T22:20:52.482Z,1200.55
2022-10-16T22:23:19.727Z,1204.40
2022-10-16T22:25:46.954Z,1196.37
2022-10-16T22:28:14.362Z,1199.80
2022-10-16T22:30:41.517Z,1199.73
2022-10-16T22:33:08.778Z,1196.53
2022-10-16T22:35:39.263Z,1201.03
2022-10-16T22:38:06.566Z,1200.67
2022-10-16T22:40:37.417Z,1201.10
2022-10-16T22:43:04.833Z,1203.78
2022-10-16T22:45:32.827Z,1200.55
2022-10-16T22:48:00.189Z,1202.15
2022-10-16T22:50:27.880Z,1199.75
2022-10-16T22:52:55.881Z,1202.60
2022-10-16T22:55:23.406Z,1201.15
2022-10-16T22:57:50.614Z,1207.65
2022-10-16T23:00:19.273Z,1206.05
2022-10-16T23:02:46.591Z,1202.05
2022-10-16T23:05:13.753Z,1206.85
2022-10-16T23:07:41.115Z,1205.18
2022-10-16T23:10:08.855Z,1209.65
2022-10-16T23:12:36.517Z,1208.30
2022-10-16T23:15:04.564Z,1206.00
2022-10-16T23:17:31.601Z,1210.13
2022-10-16T23:19:58.802Z,1198.15
2022-10-16T23:22:26.142Z,1207.00
2022-10-16T23:24:53.530Z,1202.03
2022-10-16T23:27:20.650Z,1213.18
2022-10-16T23:29:47.789Z,1201.93
2022-10-16T23:32:14.862Z,1202.30
2022-10-16T23:34:41.961Z,1202.47
2022-10-16T23:37:09.054Z,1204.47
2022-10-16T23:39:36.201Z,1205.38
2022-10-16T23:42:03.314Z,1203.22
2022-10-16T23:44:30.526Z,1205.00
2022-10-16T23:46:57.726Z,1210.10
2022-10-16T23:49:24.922Z,1198.88
2022-10-16T23:51:52.149Z,1203.45
2022-10-16T23:54:19.375Z,1200.85
2022-10-16T23:56:46.519Z,1203.68
2022-10-16T23:59:13.875Z,1208.78
